Time;durP1;ratioP1;P1;durP2;ratioP2;P2;SDS_P1;SDS_P2;PMS_P1;PMS_P2;Temp;Humidity;BMP_temperature;BMP_pressure;BME280_temperature;BME280_humidity;BME280_pressure;Samples;Min_cycle;Max_cycle;Signal;HPM_P1;HPM_P2
2022/06/01 00:00:36;;;;;;;25.10;23.20;;;;;;;10.68;83.26;101272.16;5083635;28;20031;-69
2022/06/01 00:03:01;;;;;;;25.83;23.88;;;;;;;10.63;83.15;101273.31;5086212;28;20035;-69
2022/06/01 00:05:27;;;;;;;25.00;23.10;;;;;;;10.73;83.42;101273.47;5098194;22;20055;-69
2022/06/01 00:07:52;;;;;;;26.08;24.08;;;;;;;10.53;83.66;101282.72;5070019;28;20029;-70
2022/06/01 00:10:19;;;;;;;26.50;24.50;;;;;;;10.61;83.58;101272.63;5081221;28;20355;-69
2022/06/01 00:12:44;;;;;;;26.27;24.17;;;;;;;10.64;83.83;101285.34;5085716;28;20114;-69
2022/06/01 00:15:12;;;;;;;26.30;24.25;;;;;;;10.54;83.11;101294.75;5086916;28;20115;-69
2022/06/01 00:17:38;;;;;;;26.83;24.83;;;;;;;10.67;83.62;101275.66;5085348;28;20051;-69
2022/06/01 00:20:05;;;;;;;26.38;24.42;;;;;;;10.77;82.45;101274.03;5076772;28;20058;-70
2022/06/01 00:22:30;;;;;;;26.83;24.83;;;;;;;10.50;83.30;101267.41;5084649;28;20023;-70
2022/06/01 00:24:56;;;;;;;27.17;25.08;;;;;;;10.51;83.55;101284.59;5085368;28;20661;-70
2022/06/01 00:27:22;;;;;;;25.95;23.95;;;;;;;10.56;82.62;101282.50;5085020;28;20353;-69
2022/06/01 00:29:47;;;;;;;25.50;23.58;;;;;;;10.54;83.26;101279.19;5086560;28;20077;-69
2022/06/01 00:32:14;;;;;;;27.13;25.02;;;;;;;10.42;83.24;101285.28;5073881;28;20032;-69
2022/06/01 00:34:42;;;;;;;28.55;26.25;;;;;;;10.34;84.74;101292.81;5081011;28;20019;-70
2022/06/01 00:37:10;;;;;;;27.92;25.83;;;;;;;10.44;84.19;101277.41;5085722;28;20032;-70
2022/06/01 00:39:36;;;;;;;28.05;25.95;;;;;;;10.54;84.43;101291.31;5070615;28;20020;-69
2022/06/01 00:42:17;;;;;;;30.30;27.92;;;;;;;10.51;84.77;101296.75;5086641;28;20028;-70
2022/06/01 00:44:45;;;;;;;31.60;29.20;;;;;;;10.47;84.96;101311.69;5080752;28;20027;-69
2022/06/01 00:47:11;;;;;;;32.17;29.70;;;;;;;10.48;84.35;101320.31;5086504;28;20024;-69
2022/06/01 00:49:40;;;;;;;33.63;31.10;;;;;;;10.38;85.53;101309.78;5086988;28;20024;-69
2022/06/01 00:52:06;;;;;;;32.85;30.35;;;;;;;10.43;85.52;101312.03;5079945;28;20032;-70
2022/06/01 00:54:32;;;;;;;29.23;26.88;;;;;;;10.38;84.73;101304.59;5078437;28;20487;-69
2022/06/01 00:57:03;;;;;;;25.73;23.73;;;;;;;10.36;85.03;101312.47;5084250;28;20024;-69
2022/06/01 00:59:33;;;;;;;19.42;17.92;;;;;;;10.40;83.53;101307.09;5086009;28;20031;-70
2022/06/01 01:01:59;;;;;;;17.15;15.70;;;;;;;10.38;83.78;101309.78;5065831;28;20876;-70
2022/06/01 01:04:26;;;;;;;13.95;12.65;;;;;;;10.26;83.42;101300.28;5086266;28;20044;-69
2022/06/01 01:06:51;;;;;;;11.20;10.15;;;;;;;10.31;82.73;101298.19;5083387;28;20036;-70
2022/06/01 01:09:18;;;;;;;10.88;9.85;;;;;;;10.33;83.00;101293.75;5072475;28;20396;-70
2022/06/01 01:11:54;;;;;;;10.18;9.13;;;;;;;10.29;83.22;101294.91;5086818;28;20112;-70
2022/06/01 01:14:26;;;;;;;9.70;8.80;;;;;;;10.30;83.53;101293.94;5083447;28;20032;-69
2022/06/01 01:16:52;;;;;;;9.95;9.00;;;;;;;10.23;83.91;101284.94;5086016;28;20139;-70
2022/06/01 01:19:38;;;;;;;9.77;8.80;;;;;;;10.40;83.75;101292.34;5080304;28;20591;-70
2022/06/01 01:22:03;;;;;;;10.60;9.60;;;;;;;10.24;84.75;101289.22;5080755;28;20444;-69
2022/06/01 01:24:41;;;;;;;9.55;8.55;;;;;;;10.36;84.49;101283.13;5080819;28;20024;-69
2022/06/01 01:27:07;;;;;;;9.32;8.20;;;;;;;10.31;84.11;101277.44;5085052;28;20040;-70
2022/06/01 01:29:36;;;;;;;8.70;7.80;;;;;;;10.43;84.05;101279.13;5083893;28;20085;-69
2022/06/01 01:32:02;;;;;;;9.73;8.73;;;;;;;10.42;84.42;101282.69;5084382;28;20307;-70
2022/06/01 01:34:28;;;;;;;8.90;8.00;;;;;;;10.47;84.45;101277.97;5079207;28;20044;-70
2022/06/01 01:36:59;;;;;;;9.32;8.43;;;;;;;10.48;85.04;101284.00;5084985;28;20544;-70
2022/06/01 01:39:25;;;;;;;9.02;8.13;;;;;;;10.42;84.73;101274.06;5083996;28;20378;-68
2022/06/01 01:41:53;;;;;;;9.25;8.40;;;;;;;10.40;85.32;101281.97;5082117;28;20032;-68
2022/06/01 01:44:22;;;;;;;9.40;8.37;;;;;;;10.40;85.46;101292.34;5085142;28;20111;-69
2022/06/01 01:46:49;;;;;;;10.40;8.57;;;;;;;10.39;85.38;101275.13;5084152;28;20602;-69
2022/06/01 01:49:21;;;;;;;9.13;7.95;;;;;;;10.41;85.58;101283.63;5076185;28;20024;-69
2022/06/01 01:51:48;;;;;;;10.48;9.20;;;;;;;10.51;85.84;101274.22;5078860;28;20126;-69
2022/06/01 01:54:25;;;;;;;10.45;9.35;;;;;;;10.54;85.26;101271.41;5085178;28;20127;-69
2022/06/01 01:57:02;;;;;;;8.48;7.47;;;;;;;10.45;84.68;101268.69;5081556;28;20031;-69
2022/06/01 01:59:52;;;;;;;8.98;7.78;;;;;;;10.45;85.72;101281.66;5075733;28;20420;-68
2022/06/01 02:02:32;;;;;;;7.30;6.60;;;;;;;10.29;85.02;101280.16;5083498;28;20070;-69
2022/06/01 02:07:57;;;;;;;7.60;6.80;;;;;;;10.33;84.75;101280.78;5079137;28;20042;-69
2022/06/01 02:13:07;;;;;;;8.55;7.13;;;;;;;10.38;85.44;101278.69;5085045;28;20047;-68
2022/06/01 02:15:36;;;;;;;8.23;7.15;;;;;;;10.40;85.28;101279.38;5065412;28;20012;-69
2022/06/01 02:18:05;;;;;;;;;;;;;;;10.57;83.58;101268.59;5081544;28;20036;-69
2022/06/01 02:20:41;;;;;;;8.40;7.50;;;;;;;10.48;85.71;101279.63;5084631;28;19908;-68
2022/06/01 02:23:11;;;;;;;8.88;7.90;;;;;;;10.51;85.45;101274.22;5073622;28;20063;-69
2022/06/01 02:25:38;;;;;;;9.30;8.40;;;;;;;10.51;84.35;101279.41;5073650;28;20094;-68
2022/06/01 02:28:04;;;;;;;9.55;8.55;;;;;;;10.40;85.92;101287.16;5082231;28;20543;-69
2022/06/01 02:30:34;;;;;;;9.10;8.20;;;;;;;10.41;85.27;101287.97;5082740;28;20028;-69
2022/06/01 02:33:03;;;;;;;9.77;8.80;;;;;;;10.24;86.29;101282.25;5083598;28;20542;-69
2022/06/01 02:35:34;;;;;;;11.68;8.80;;;;;;;10.45;85.56;101273.88;5065535;28;20051;-69
2022/06/01 02:38:02;;;;;;;8.77;7.88;;;;;;;10.48;85.51;101258.88;5085102;28;20024;-69
2022/06/01 02:40:29;;;;;;;8.40;7.35;;;;;;;10.47;84.63;101262.41;5082604;28;20426;-68
2022/06/01 02:42:57;;;;;;;7.93;6.53;;;;;;;10.49;83.86;101255.34;5065466;28;20037;-68
2022/06/01 02:45:26;;;;;;;7.65;6.85;;;;;;;10.52;84.45;101260.31;5082546;28;20106;-69
2022/06/01 02:47:55;;;;;;;8.63;7.82;;;;;;;10.52;83.69;101260.31;5073937;28;20534;-69
2022/06/01 02:50:26;;;;;;;9.13;8.23;;;;;;;10.44;84.32;101267.84;5088042;28;20024;-68
2022/06/01 02:52:53;;;;;;;8.00;7.20;;;;;;;10.31;84.22;101272.25;5087899;28;20034;-68
2022/06/01 02:55:21;;;;;;;8.50;7.70;;;;;;;10.41;84.61;101277.63;5088641;28;20052;-68
2022/06/01 02:57:47;;;;;;;9.40;8.40;;;;;;;10.24;84.36;101255.50;5086162;28;20024;-69
2022/06/01 03:00:26;;;;;;;9.55;8.65;;;;;;;10.24;84.89;101276.25;5089515;28;20103;-69
2022/06/01 03:02:57;;;;;;;10.27;9.35;;;;;;;10.16;84.39;101268.19;5080451;28;20027;-69
2022/06/01 03:05:29;;;;;;;10.93;9.82;;;;;;;10.21;84.75;101273.88;5087543;28;20048;-69
2022/06/01 03:07:55;;;;;;;12.50;11.30;;;;;;;10.29;84.65;101268.97;5086474;28;20071;-69
2022/06/01 03:10:21;;;;;;;16.63;15.23;;;;;;;10.27;84.47;101265.69;5089169;28;20160;-70
2022/06/01 03:12:47;;;;;;;18.63;17.05;;;;;;;10.31;84.67;101261.91;5075376;28;20028;-69
2022/06/01 03:15:15;;;;;;;21.75;20.05;;;;;;;10.26;85.02;101248.44;5066955;28;20024;-69
2022/06/01 03:17:40;;;;;;;23.70;21.80;;;;;;;10.20;85.18;101259.22;5088300;28;20379;-69
2022/06/01 03:20:08;;;;;;;24.98;22.98;;;;;;;10.11;84.67;101256.38;5078708;28;20020;-69
2022/06/01 03:22:37;;;;;;;28.90;26.48;;;;;;;10.07;84.62;101265.31;5087793;28;20036;-69
2022/06/01 03:25:04;;;;;;;31.35;28.88;;;;;;;10.03;85.14;101256.09;5086763;28;20491;-69
2022/06/01 03:27:29;;;;;;;33.28;30.65;;;;;;;9.97;85.60;101259.13;5088881;28;20028;-69
2022/06/01 03:29:55;;;;;;;32.97;30.27;;;;;;;10.03;85.47;101253.50;5080141;28;20027;-69
2022/06/01 03:32:21;;;;;;;34.65;31.85;;;;;;;9.97;85.49;101256.53;5088168;28;20031;-69
2022/06/01 03:34:46;;;;;;;33.70;31.00;;;;;;;9.92;85.09;101245.72;5087420;28;20032;-68
2022/06/01 03:37:12;;;;;;;35.25;32.35;;;;;;;10.02;85.89;101262.22;5083798;28;20024;-69
2022/06/01 03:39:37;;;;;;;35.85;33.05;;;;;;;9.92;85.84;101256.06;5078611;28;20427;-69
2022/06/01 03:42:03;;;;;;;36.47;33.58;;;;;;;9.98;85.41;101255.63;5083368;28;20024;-69
2022/06/01 03:47:12;;;;;;;37.63;34.53;;;;;;;9.84;85.32;101269.56;5083809;28;20086;-69
2022/06/01 03:49:38;;;;;;;39.08;35.90;;;;;;;9.70;85.71;101266.31;5081227;28;20028;-70
2022/06/01 03:52:04;;;;;;;38.83;35.83;;;;;;;9.89;85.40;101271.00;5080077;28;20035;-69
2022/06/01 03:54:30;;;;;;;38.58;35.58;;;;;;;9.82;85.92;101278.38;5063611;28;20099;-69
2022/06/01 03:56:56;;;;;;;38.40;35.30;;;;;;;9.78;85.66;101269.16;5083572;28;20454;-69
2022/06/01 03:59:22;;;;;;;39.53;36.13;;;;;;;9.75;85.91;101279.75;5064668;28;20451;-69
2022/06/01 04:01:48;;;;;;;38.53;35.30;;;;;;;9.75;85.47;101269.41;5087937;28;20435;-69
2022/06/01 04:04:13;;;;;;;41.67;37.80;;;;;;;9.80;86.20;101272.47;5086733;28;20485;-69
2022/06/01 04:06:39;;;;;;;40.05;36.75;;;;;;;9.78;86.29;101280.34;5074134;28;20821;-68
2022/06/01 04:09:04;;;;;;;41.38;37.90;;;;;;;9.77;86.42;101278.69;5067339;28;20027;-68
2022/06/01 04:11:30;;;;;;;41.80;38.50;;;;;;;9.75;86.20;101277.16;5083220;28;20413;-70
2022/06/01 04:13:55;;;;;;;40.53;37.15;;;;;;;9.73;86.22;101286.78;5081378;28;20028;-68
2022/06/01 04:16:20;;;;;;;39.88;36.55;;;;;;;9.74;85.72;101283.25;5074459;28;20028;-67
2022/06/01 04:18:46;;;;;;;38.47;35.35;;;;;;;9.70;86.23;101276.66;5080886;28;20039;-68
2022/06/01 04:21:15;;;;;;;37.58;34.40;;;;;;;9.80;85.72;101277.66;5064611;28;20122;-67
2022/06/01 04:23:40;;;;;;;37.38;34.08;;;;;;;9.73;86.24;101281.63;5082034;28;20021;-68
2022/06/01 04:26:06;;;;;;;36.50;33.60;;;;;;;9.68;86.74;101278.53;5081232;28;20026;-68
2022/06/01 04:28:31;;;;;;;35.58;32.65;;;;;;;9.70;86.39;101284.44;5080272;28;20020;-69
2022/06/01 04:30:56;;;;;;;34.35;31.55;;;;;;;9.82;86.08;101281.81;5078226;28;20395;-68
2022/06/01 04:33:22;;;;;;;34.40;31.50;;;;;;;9.76;86.48;101296.97;5082997;28;20464;-68
2022/06/01 04:35:48;;;;;;;34.55;31.55;;;;;;;9.84;87.19;101294.63;5084998;28;20032;-68
2022/06/01 04:38:19;;;;;;;36.15;33.15;;;;;;;9.79;87.02;101287.19;5085244;28;20119;-69
2022/06/01 04:40:51;;;;;;;35.28;32.42;;;;;;;9.90;87.58;101294.19;5074997;28;20077;-69
2022/06/01 04:43:20;;;;;;;34.75;31.88;;;;;;;9.95;87.36;101286.09;5086682;28;20067;-68
2022/06/01 04:45:45;;;;;;;;;;;;;;;10.07;86.44;101286.03;5087180;28;20442;-68
2022/06/01 04:48:11;;;;;;;33.15;30.25;;;;;;;9.85;86.95;101280.75;5085591;28;19923;-68
2022/06/01 04:50:42;;;;;;;34.15;31.25;;;;;;;9.84;87.37;101276.50;5082322;28;20150;-68
2022/06/01 04:53:13;;;;;;;35.05;31.95;;;;;;;9.82;88.16;101280.97;5086868;28;20024;-68
2022/06/01 04:55:39;;;;;;;34.08;31.30;;;;;;;9.79;87.63;101276.00;5084051;28;20142;-68
2022/06/01 04:58:05;;;;;;;34.38;31.38;;;;;;;9.78;88.17;101279.53;5085648;28;20514;-68
2022/06/01 05:00:33;;;;;;;34.75;31.83;;;;;;;9.73;87.65;101279.03;5083160;28;20032;-67
2022/06/01 05:02:59;;;;;;;34.53;31.55;;;;;;;9.83;88.09;101274.84;5083078;28;20035;-68
2022/06/01 05:05:24;;;;;;;34.92;32.00;;;;;;;9.73;88.56;101276.44;5085279;28;20060;-68
2022/06/01 05:07:50;;;;;;;34.53;31.63;;;;;;;9.72;88.13;101274.78;5067332;28;20031;-68
2022/06/01 05:10:15;;;;;;;34.72;31.77;;;;;;;9.72;88.33;101273.03;5078334;28;20035;-69
2022/06/01 05:12:41;;;;;;;33.88;30.98;;;;;;;9.79;88.44;101286.34;5079295;28;20029;-68
2022/06/01 05:15:07;;;;;;;35.35;32.25;;;;;;;9.84;88.13;101279.09;5084502;28;20352;-68
2022/06/01 05:17:33;;;;;;;35.63;32.65;;;;;;;9.82;88.83;101281.81;5084857;28;20463;-69
2022/06/01 05:19:59;;;;;;;35.20;32.30;;;;;;;9.84;89.31;101284.28;5079835;28;20035;-69
2022/06/01 05:22:24;;;;;;;36.42;33.17;;;;;;;9.89;89.35;101284.78;5078133;28;20028;-69
2022/06/01 05:24:49;;;;;;;36.85;33.65;;;;;;;9.91;90.10;101277.72;5073063;28;20390;-69
2022/06/01 05:27:15;;;;;;;35.70;32.58;;;;;;;9.99;89.90;101275.41;5075586;28;20021;-69
2022/06/01 05:29:40;;;;;;;34.08;31.13;;;;;;;10.06;89.18;101276.63;5076280;28;20038;-70
2022/06/01 05:32:06;;;;;;;31.55;28.63;;;;;;;10.10;89.28;101280.66;5069738;28;20021;-69
2022/06/01 05:34:31;;;;;;;30.27;27.58;;;;;;;10.11;88.78;101277.13;5066891;28;20024;-69
2022/06/01 05:37:12;;;;;;;31.38;28.48;;;;;;;10.10;89.30;101275.47;5068456;28;20019;-69
2022/06/01 05:39:38;;;;;;;30.48;27.55;;;;;;;10.20;88.95;101280.78;5081797;28;20032;-69
2022/06/01 05:42:04;;;;;;;29.05;26.25;;;;;;;10.26;89.27;101284.72;5072076;28;20035;-70
2022/06/01 05:44:29;;;;;;;27.67;25.23;;;;;;;10.30;88.25;101281.81;5086309;28;20024;-69
2022/06/01 05:46:59;;;;;;;27.02;24.48;;;;;;;10.37;88.29;101287.38;5067905;28;20155;-69
2022/06/01 05:49:25;;;;;;;29.10;26.40;;;;;;;10.40;88.99;101292.34;5075357;28;20118;-69
2022/06/01 05:51:51;;;;;;;28.48;25.80;;;;;;;10.48;87.99;101295.19;5069668;28;20028;-70
2022/06/01 05:54:16;;;;;;;28.55;26.05;;;;;;;10.50;88.43;101297.69;5070700;28;20032;-69
2022/06/01 05:56:42;;;;;;;27.52;24.95;;;;;;;10.54;88.44;101293.91;5080891;28;20459;-69
2022/06/01 05:59:08;;;;;;;27.27;24.70;;;;;;;10.59;88.73;101292.63;5064877;28;20035;-69
2022/06/01 06:01:33;;;;;;;26.92;24.50;;;;;;;10.75;88.39;101291.50;5079834;28;20451;-69
2022/06/01 06:03:59;;;;;;;26.85;24.35;;;;;;;10.79;87.80;101298.13;5073456;28;20166;-69
2022/06/01 06:06:24;;;;;;;27.15;24.65;;;;;;;10.84;87.36;101301.19;5074925;28;20027;-69
2022/06/01 06:08:52;;;;;;;26.50;24.20;;;;;;;10.90;87.94;101305.94;5072321;28;20124;-69
2022/06/01 06:11:18;;;;;;;26.90;24.60;;;;;;;10.93;88.07;101302.25;5077767;28;20512;-69
2022/06/01 06:13:45;;;;;;;27.27;24.88;;;;;;;10.90;87.50;101305.94;5077748;28;20032;-70
2022/06/01 06:16:12;;;;;;;26.67;24.08;;;;;;;10.98;87.78;101319.16;5081667;28;20051;-69
2022/06/01 06:18:38;;;;;;;26.08;23.77;;;;;;;11.06;87.43;101316.78;5084126;28;20123;-69
2022/06/01 06:21:04;;;;;;;25.38;22.98;;;;;;;11.14;87.57;101319.63;5080719;28;20574;-69
2022/06/01 06:23:29;;;;;;;25.05;22.80;;;;;;;11.15;88.12;101313.50;5072184;28;20028;-70
2022/06/01 06:25:55;;;;;;;24.92;22.63;;;;;;;11.30;87.47;101324.50;5066548;28;20076;-70
2022/06/01 06:28:21;;;;;;;25.60;23.27;;;;;;;11.34;87.93;101327.66;5082478;28;20038;-70
2022/06/01 06:30:46;;;;;;;24.20;21.90;;;;;;;11.39;87.51;101323.78;5081174;28;20028;-69
2022/06/01 06:33:11;;;;;;;23.73;21.52;;;;;;;11.44;86.33;101328.63;5078449;28;20103;-69
2022/06/01 06:35:37;;;;;;;21.77;19.70;;;;;;;11.45;86.38;101332.88;5064299;28;20020;-69
2022/06/01 06:38:03;;;;;;;23.02;20.88;;;;;;;11.60;86.59;101336.06;5072733;28;20021;-69
2022/06/01 06:40:29;;;;;;;22.75;20.55;;;;;;;11.67;86.32;101338.06;5077849;28;20035;-69
2022/06/01 06:42:54;;;;;;;21.92;19.83;;;;;;;11.74;86.40;101337.56;5064190;28;20035;-69
2022/06/01 06:45:20;;;;;;;19.98;17.95;;;;;;;11.89;85.92;101333.81;5077853;28;20028;-70
2022/06/01 06:47:47;;;;;;;19.75;17.88;;;;;;;11.91;86.46;101339.69;5074093;28;20036;-69
2022/06/01 06:50:17;;;;;;;17.60;15.95;;;;;;;12.07;86.18;101340.16;5084313;28;20047;-70
2022/06/01 06:52:42;;;;;;;17.10;15.50;;;;;;;12.09;85.35;101333.03;5083946;28;20043;-70
2022/06/01 06:55:09;;;;;;;16.08;14.38;;;;;;;12.25;85.25;101345.66;5069017;28;20464;-69
2022/06/01 06:57:35;;;;;;;16.13;14.52;;;;;;;12.36;83.54;101339.59;5062988;28;20024;-69
2022/06/01 07:00:03;;;;;;;16.90;15.10;;;;;;;12.41;84.55;101327.84;5070237;28;20464;-69
2022/06/01 07:02:28;;;;;;;16.10;14.40;;;;;;;12.47;84.14;101347.34;5076561;28;20020;-69
2022/06/01 07:04:54;;;;;;;16.23;14.63;;;;;;;12.63;84.67;101345.16;5068401;28;20566;-70
2022/06/01 07:07:19;;;;;;;14.52;13.13;;;;;;;12.61;82.65;101347.03;5068004;28;20097;-69
2022/06/01 07:09:44;;;;;;;13.05;11.60;;;;;;;12.66;82.06;101347.47;5065108;28;20077;-69
2022/06/01 07:12:10;;;;;;;15.13;10.95;;;;;;;12.54;81.67;101343.28;5082127;28;20040;-69
2022/06/01 07:14:36;;;;;;;12.93;10.52;;;;;;;12.54;81.44;101352.88;5072961;28;20020;-69
2022/06/01 07:17:02;;;;;;;10.95;9.82;;;;;;;12.60;81.19;101358.41;5078888;28;20118;-69
2022/06/01 07:19:28;;;;;;;11.80;10.45;;;;;;;12.70;82.03;101348.88;5080920;28;20031;-68
2022/06/01 07:21:54;;;;;;;12.52;10.18;;;;;;;12.79;80.96;101362.09;5065655;28;20074;-69
2022/06/01 07:24:20;;;;;;;11.45;8.90;;;;;;;12.79;81.04;101346.47;5068123;28;20051;-69
2022/06/01 07:26:46;;;;;;;11.15;8.73;;;;;;;12.88;80.00;101361.34;5079801;28;20463;-69
2022/06/01 07:29:18;;;;;;;10.23;7.93;;;;;;;12.86;79.62;101358.06;5077267;28;20665;-69
2022/06/01 07:31:45;;;;;;;8.75;6.97;;;;;;;13.04;78.38;101356.50;5066900;28;20815;-69
2022/06/01 07:34:10;;;;;;;9.13;7.40;;;;;;;12.96;77.19;101361.53;5078010;28;20401;-68
2022/06/01 07:36:36;;;;;;;9.45;8.10;;;;;;;13.20;79.48;101356.88;5067813;28;20540;-69
2022/06/01 07:44:52;;;;;;;8.90;7.70;;;;;;;13.28;75.59;101364.91;5068261;28;20039;-69
2022/06/01 07:47:21;;;;;;;8.77;7.88;;;;;;;13.48;75.21;101359.78;5073855;28;20122;-69
2022/06/01 07:49:47;;;;;;;8.98;8.05;;;;;;;13.51;75.42;101360.34;5087189;28;20489;-69
2022/06/01 07:52:13;;;;;;;9.82;8.50;;;;;;;13.43;75.48;101364.56;5074511;28;20070;-69
2022/06/01 07:54:41;;;;;;;9.82;8.43;;;;;;;13.47;75.23;101358.13;5073660;28;20079;-69
2022/06/01 07:57:10;;;;;;;10.20;8.40;;;;;;;13.65;74.62;101367.00;5083207;28;20036;-68
2022/06/01 07:59:36;;;;;;;9.70;8.57;;;;;;;13.68;74.94;101369.31;5079997;28;20062;-69
2022/06/01 08:02:05;;;;;;;12.10;9.10;;;;;;;13.66;74.67;101368.66;5082029;28;20024;-69
2022/06/01 08:04:31;;;;;;;10.73;8.80;;;;;;;13.75;75.09;101372.22;5080810;28;20043;-69
2022/06/01 08:06:56;;;;;;;10.02;8.90;;;;;;;13.72;74.74;101368.13;5077367;28;20036;-69
2022/06/01 08:09:22;;;;;;;9.73;8.75;;;;;;;13.80;74.79;101373.47;5086004;28;20103;-69
2022/06/01 08:14:33;;;;;;;9.20;8.20;;;;;;;13.90;72.06;101370.09;5074906;28;20039;-69
2022/06/01 08:17:05;;;;;;;10.20;8.38;;;;;;;13.81;71.51;101367.28;5086169;28;20023;-69
2022/06/01 08:19:30;;;;;;;10.75;8.85;;;;;;;13.78;71.45;101378.00;5080874;28;20039;-68
2022/06/01 08:21:56;;;;;;;10.05;9.13;;;;;;;13.76;70.98;101374.72;5073614;28;20024;-69
2022/06/01 08:24:21;;;;;;;9.55;8.65;;;;;;;13.97;71.39;101365.97;5083571;28;20028;-68
2022/06/01 08:26:47;;;;;;;9.82;8.80;;;;;;;14.10;72.07;101374.38;5071855;28;20066;-68
2022/06/01 08:29:12;;;;;;;10.18;9.18;;;;;;;14.20;72.11;101372.59;5086248;28;20054;-68
2022/06/01 08:31:37;;;;;;;9.85;8.85;;;;;;;14.32;71.76;101363.69;5073143;28;20063;-69
2022/06/01 08:34:04;;;;;;;9.20;8.13;;;;;;;14.52;71.45;101361.13;5081070;28;20436;-69
2022/06/01 08:36:30;;;;;;;10.63;8.60;;;;;;;14.72;71.02;101362.75;5077782;28;20435;-70
2022/06/01 08:38:56;;;;;;;9.18;8.27;;;;;;;14.77;70.26;101355.34;5082710;28;20039;-69
2022/06/01 08:41:30;;;;;;;8.65;7.00;;;;;;;15.06;70.96;101370.97;5073689;28;20024;-69
2022/06/01 08:43:59;;;;;;;7.88;6.20;;;;;;;14.98;66.41;101368.25;5071728;28;20023;-68
2022/06/01 08:46:26;;;;;;;8.57;6.70;;;;;;;14.99;66.88;101369.06;5086936;28;20497;-68
2022/06/01 08:49:14;;;;;;;7.43;6.30;;;;;;;15.02;69.13;101373.97;5069791;28;20023;-68
2022/06/01 08:51:39;;;;;;;7.65;5.70;;;;;;;15.02;67.00;101368.75;5074845;28;20086;-69
2022/06/01 08:54:05;;;;;;;7.50;5.80;;;;;;;15.06;66.96;101370.13;5079103;28;20024;-68
2022/06/01 08:56:36;;;;;;;7.35;6.20;;;;;;;14.97;68.03;101360.53;5068721;28;20388;-68
2022/06/01 08:59:40;;;;;;;7.78;6.50;;;;;;;14.98;67.98;101372.63;5080799;28;20488;-69
2022/06/01 09:02:15;;;;;;;8.73;6.30;;;;;;;14.86;68.11;101364.97;5082833;28;20028;-69
2022/06/01 09:04:51;;;;;;;7.57;6.10;;;;;;;14.91;67.68;101366.31;5073715;28;20051;-68
2022/06/01 09:07:26;;;;;;;8.57;6.47;;;;;;;15.09;68.29;101380.31;5084286;28;20039;-69
2022/06/01 09:10:16;;;;;;;7.60;6.68;;;;;;;15.22;66.75;101374.78;5072168;28;20070;-69
2022/06/01 09:12:44;;;;;;;8.27;6.20;;;;;;;15.37;66.40;101368.13;5084822;28;20390;-69
2022/06/01 09:15:25;;;;;;;7.53;5.13;;;;;;;15.43;64.00;101371.97;5087335;28;20024;-69
2022/06/01 09:17:51;;;;;;;6.28;4.43;;;;;;;15.45;63.45;101364.81;5080314;28;20028;-68
2022/06/01 09:23:10;;;;;;;6.53;4.85;;;;;;;15.59;63.85;101386.06;5070899;28;20071;-69
2022/06/01 09:25:36;;;;;;;8.50;5.43;;;;;;;15.56;63.63;101388.16;5074185;28;20024;-69
2022/06/01 09:28:22;;;;;;;8.30;5.63;;;;;;;15.49;63.20;101382.69;5072672;28;20031;-69
2022/06/01 09:31:02;;;;;;;5.55;4.15;;;;;;;15.72;62.65;101372.69;5084959;28;20479;-68
2022/06/01 09:33:32;;;;;;;5.35;3.80;;;;;;;15.83;59.49;101377.75;5082409;28;20035;-68
2022/06/01 09:36:06;;;;;;;5.90;4.25;;;;;;;16.02;61.46;101386.44;5086583;28;20066;-68
2022/06/01 09:38:48;;;;;;;5.72;4.60;;;;;;;15.99;60.00;101376.25;5084258;28;20074;-68
2022/06/01 09:41:19;;;;;;;6.85;4.78;;;;;;;15.91;60.51;101377.00;5077849;28;20414;-69
2022/06/01 09:44:05;;;;;;;5.95;4.50;;;;;;;15.99;60.41;101376.25;5069455;28;20041;-68
2022/06/01 09:46:40;;;;;;;5.50;4.00;;;;;;;15.89;60.42;101368.47;5078294;28;20022;-68
2022/06/01 09:49:18;;;;;;;5.88;3.97;;;;;;;15.89;61.02;101379.75;5082859;28;20043;-68
2022/06/01 09:51:46;;;;;;;5.38;4.10;;;;;;;15.84;60.60;101394.25;5086568;28;20046;-68
2022/06/01 09:54:23;;;;;;;6.80;4.65;;;;;;;15.71;61.80;101418.09;5082894;28;20387;-68
2022/06/01 09:56:49;;;;;;;6.25;4.60;;;;;;;15.24;63.83;101409.41;5085170;28;20036;-68
2022/06/01 10:08:21;;;;;;;5.57;4.35;;;;;;;14.95;64.83;101399.03;5083097;28;20042;-68
2022/06/01 10:11:03;;;;;;;6.07;4.45;;;;;;;15.02;65.17;101389.66;5071316;28;20032;-68
2022/06/01 10:13:38;;;;;;;5.72;4.70;;;;;;;15.03;65.39;101401.78;5085983;28;20077;-68
2022/06/01 10:16:29;;;;;;;7.50;5.22;;;;;;;15.05;66.62;101397.22;5082190;28;20020;-68
2022/06/01 10:18:58;;;;;;;7.22;5.65;;;;;;;15.12;66.30;101400.91;5075689;28;20024;-68
2022/06/01 10:21:33;;;;;;;6.78;5.60;;;;;;;15.23;66.20;101397.31;5084146;28;20103;-68
2022/06/01 10:24:12;;;;;;;6.43;5.70;;;;;;;15.29;66.10;101392.34;5084972;28;20093;-68
2022/06/01 10:26:44;;;;;;;6.82;5.70;;;;;;;15.38;64.82;101401.97;5084187;28;20040;-69
2022/06/01 10:29:17;;;;;;;7.20;6.00;;;;;;;15.40;67.15;101394.78;5086616;28;20141;-68
2022/06/01 10:32:03;;;;;;;7.93;6.00;;;;;;;15.62;67.23;101403.25;5082115;28;20028;-68
2022/06/01 10:34:36;;;;;;;6.43;5.80;;;;;;;15.70;64.65;101400.75;5085456;28;20378;-69
2022/06/01 10:37:19;;;;;;;7.07;6.22;;;;;;;15.63;65.00;101400.53;5073348;28;20099;-68
2022/06/01 10:40:11;;;;;;;7.07;6.25;;;;;;;15.61;64.46;101417.31;5084055;28;20038;-68
2022/06/01 10:45:45;;;;;;;9.02;5.90;;;;;;;15.68;65.44;101417.59;5072786;28;20503;-68
2022/06/01 10:48:28;;;;;;;7.10;5.53;;;;;;;15.76;64.88;101418.50;5077362;28;20012;-70
2022/06/01 10:51:34;;;;;;;8.43;5.90;;;;;;;15.91;64.75;101414.44;5076307;28;20032;-68
2022/06/01 10:53:59;;;;;;;6.57;5.80;;;;;;;15.95;63.77;101401.09;5074722;28;20020;-68
2022/06/01 10:56:26;;;;;;;7.32;6.13;;;;;;;15.87;64.24;101405.22;5072594;28;20039;-68
2022/06/01 10:58:54;;;;;;;7.57;6.78;;;;;;;16.24;65.18;101409.59;5084876;28;20024;-70
2022/06/01 11:01:41;;;;;;;8.77;6.93;;;;;;;16.39;64.23;101413.31;5086837;28;20032;-68
2022/06/01 11:04:25;;;;;;;7.97;6.82;;;;;;;16.64;63.84;101403.91;5084356;28;20098;-68
2022/06/01 11:07:33;;;;;;;7.95;6.78;;;;;;;16.92;62.81;101409.91;5090567;28;20028;-68
2022/06/01 11:10:21;;;;;;;8.93;6.93;;;;;;;16.95;61.74;101414.00;5004814;28;20069;-68
2022/06/01 11:12:53;;;;;;;8.13;6.65;;;;;;;16.79;61.34;101419.94;5010634;28;20037;-69
2022/06/01 11:15:24;;;;;;;6.45;5.82;;;;;;;16.45;62.33;101412.72;5021194;28;20090;-69
2022/06/01 11:18:07;;;;;;;7.60;5.85;;;;;;;16.33;62.66;101413.91;5009150;28;20124;-69
2022/06/01 11:20:42;;;;;;;7.72;6.15;;;;;;;16.33;62.98;101416.53;5012365;28;20045;-68
2022/06/01 11:23:25;;;;;;;7.45;5.70;;;;;;;16.25;62.72;101420.88;5012589;28;20482;-69
2022/06/01 11:26:02;;;;;;;7.20;5.57;;;;;;;16.22;63.15;101421.97;5018950;28;20503;-68
2022/06/01 11:28:50;;;;;;;7.47;5.82;;;;;;;16.20;63.35;101423.94;5009159;28;20124;-68
2022/06/01 11:31:22;;;;;;;9.25;6.22;;;;;;;16.15;63.14;101410.44;5013751;28;20037;-69
2022/06/01 11:34:05;;;;;;;7.22;6.40;;;;;;;16.31;63.84;101423.72;5009086;28;20050;-69
2022/06/01 11:36:36;;;;;;;8.73;6.30;;;;;;;16.39;63.00;101423.78;5018776;28;20547;-69
2022/06/01 11:39:25;;;;;;;6.35;5.30;;;;;;;16.56;61.95;101424.78;5007434;28;20025;-69
2022/06/01 11:42:00;;;;;;;5.30;3.80;;;;;;;16.45;58.06;101422.38;5012135;28;20034;-69
2022/06/01 11:44:34;;;;;;;4.00;2.42;;;;;;;16.48;57.93;101423.88;5026042;28;20039;-68
2022/06/01 11:47:07;;;;;;;2.38;1.92;;;;;;;16.51;54.84;101426.19;5048245;28;20837;-68
2022/06/01 11:49:38;;;;;;;1.90;1.30;;;;;;;16.31;53.63;101431.56;5093864;28;20104;-69
2022/06/01 11:52:30;;;;;;;2.78;1.20;;;;;;;16.30;56.14;101429.94;5087462;28;20024;-71
2022/06/01 11:55:21;;;;;;;2.92;1.10;;;;;;;16.07;55.48;101433.94;5070662;28;20113;-68
2022/06/01 11:58:13;;;;;;;1.88;1.20;;;;;;;15.98;54.54;101429.56;5057956;28;20084;-68
2022/06/01 12:00:55;;;;;;;2.30;1.17;;;;;;;15.86;53.77;101416.66;5064705;28;20082;-68
2022/06/01 12:03:20;;;;;;;2.10;1.00;;;;;;;15.66;50.28;101430.81;5071855;28;20035;-68